Terminal Aerodrome Forecast
Issued by NWS Mt. Holly, NJ

Home | Current Version | Previous Version | Text Only | Print | Product List | Glossary On
Versions: 1 2 3 4 5 6 7 8 9 10 11 12 13 14
000
FTUS41 KPHI 121725
TAFTTN
TAF
KTTN 121725Z 1218/1318 24009KT P6SM VCSH OVC050
     FM122000 24012KT P6SM BKN060
     FM122200 27012G22KT P6SM BKN060
     FM130000 28015G25KT P6SM SCT060
     FM130400 28020G30KT P6SM SKC=

USA.gov is the U.S. government's official web portal to all federal, state and local government web resources and services.